sensor_id;sensor_type;location;lat;lon;timestamp;P1;durP1;ratioP1;P2;durP2;ratioP2
69401;SDS011;56589;51.992;5.924;2023-09-08T00:00:28;7.25;;;5.05;;
69401;SDS011;56589;51.992;5.924;2023-09-08T00:02:54;11.40;;;5.47;;
69401;SDS011;56589;51.992;5.924;2023-09-08T00:05:20;8.75;;;5.68;;
69401;SDS011;56589;51.992;5.924;2023-09-08T00:07:46;7.50;;;4.93;;
69401;SDS011;56589;51.992;5.924;2023-09-08T00:10:15;11.35;;;5.22;;
69401;SDS011;56589;51.992;5.924;2023-09-08T00:12:42;9.30;;;4.97;;
69401;SDS011;56589;51.992;5.924;2023-09-08T00:15:09;8.43;;;5.80;;
69401;SDS011;56589;51.992;5.924;2023-09-08T00:17:38;6.82;;;4.50;;
69401;SDS011;56589;51.992;5.924;2023-09-08T00:20:05;9.02;;;5.13;;
69401;SDS011;56589;51.992;5.924;2023-09-08T00:22:34;7.03;;;4.97;;
69401;SDS011;56589;51.992;5.924;2023-09-08T00:25:01;7.85;;;5.47;;
69401;SDS011;56589;51.992;5.924;2023-09-08T00:27:30;8.55;;;5.38;;
69401;SDS011;56589;51.992;5.924;2023-09-08T00:29:56;6.72;;;5.38;;
69401;SDS011;56589;51.992;5.924;2023-09-08T00:32:23;8.15;;;5.43;;
69401;SDS011;56589;51.992;5.924;2023-09-08T00:34:51;6.72;;;5.00;;
69401;SDS011;56589;51.992;5.924;2023-09-08T00:37:18;7.65;;;5.40;;
69401;SDS011;56589;51.992;5.924;2023-09-08T00:39:46;10.20;;;5.63;;
69401;SDS011;56589;51.992;5.924;2023-09-08T00:42:13;10.10;;;5.38;;
69401;SDS011;56589;51.992;5.924;2023-09-08T00:44:41;5.85;;;5.03;;
69401;SDS011;56589;51.992;5.924;2023-09-08T00:47:07;7.63;;;5.93;;
69401;SDS011;56589;51.992;5.924;2023-09-08T00:49:35;7.95;;;6.05;;
69401;SDS011;56589;51.992;5.924;2023-09-08T00:52:01;8.23;;;5.38;;
69401;SDS011;56589;51.992;5.924;2023-09-08T00:54:28;9.88;;;5.63;;
69401;SDS011;56589;51.992;5.924;2023-09-08T00:56:55;9.52;;;5.65;;
69401;SDS011;56589;51.992;5.924;2023-09-08T00:59:22;7.20;;;5.47;;
69401;SDS011;56589;51.992;5.924;2023-09-08T01:01:53;8.48;;;5.15;;
69401;SDS011;56589;51.992;5.924;2023-09-08T01:04:19;7.55;;;5.72;;
69401;SDS011;56589;51.992;5.924;2023-09-08T01:06:47;7.68;;;5.30;;
69401;SDS011;56589;51.992;5.924;2023-09-08T01:09:14;6.97;;;5.63;;
69401;SDS011;56589;51.992;5.924;2023-09-08T01:11:41;6.35;;;5.18;;
69401;SDS011;56589;51.992;5.924;2023-09-08T01:14:10;9.27;;;5.63;;
69401;SDS011;56589;51.992;5.924;2023-09-08T01:16:38;7.90;;;5.30;;
69401;SDS011;56589;51.992;5.924;2023-09-08T01:19:08;8.60;;;5.93;;
69401;SDS011;56589;51.992;5.924;2023-09-08T01:21:45;7.65;;;5.47;;
69401;SDS011;56589;51.992;5.924;2023-09-08T01:28:06;8.23;;;5.05;;
69401;SDS011;56589;51.992;5.924;2023-09-08T01:30:35;10.85;;;5.53;;
69401;SDS011;56589;51.992;5.924;2023-09-08T01:33:03;10.63;;;6.60;;
69401;SDS011;56589;51.992;5.924;2023-09-08T01:35:30;8.10;;;5.88;;
69401;SDS011;56589;51.992;5.924;2023-09-08T01:37:57;9.20;;;5.93;;
69401;SDS011;56589;51.992;5.924;2023-09-08T01:40:24;7.65;;;5.93;;
69401;SDS011;56589;51.992;5.924;2023-09-08T01:42:53;7.40;;;5.72;;
69401;SDS011;56589;51.992;5.924;2023-09-08T01:45:20;9.65;;;6.47;;
69401;SDS011;56589;51.992;5.924;2023-09-08T01:47:46;7.97;;;5.85;;
69401;SDS011;56589;51.992;5.924;2023-09-08T01:50:13;8.32;;;6.28;;
69401;SDS011;56589;51.992;5.924;2023-09-08T01:52:41;7.65;;;5.82;;
69401;SDS011;56589;51.992;5.924;2023-09-08T01:55:08;8.35;;;5.47;;
69401;SDS011;56589;51.992;5.924;2023-09-08T01:57:36;7.88;;;6.35;;
69401;SDS011;56589;51.992;5.924;2023-09-08T02:00:07;10.50;;;5.95;;
69401;SDS011;56589;51.992;5.924;2023-09-08T02:02:36;7.57;;;5.65;;
69401;SDS011;56589;51.992;5.924;2023-09-08T02:05:02;10.43;;;6.10;;
69401;SDS011;56589;51.992;5.924;2023-09-08T02:07:29;11.55;;;6.10;;
69401;SDS011;56589;51.992;5.924;2023-09-08T02:09:55;7.43;;;5.93;;
69401;SDS011;56589;51.992;5.924;2023-09-08T02:12:22;9.02;;;5.80;;
69401;SDS011;56589;51.992;5.924;2023-09-08T02:14:49;7.35;;;5.90;;
69401;SDS011;56589;51.992;5.924;2023-09-08T02:17:19;12.05;;;6.82;;
69401;SDS011;56589;51.992;5.924;2023-09-08T02:19:46;11.30;;;6.50;;
69401;SDS011;56589;51.992;5.924;2023-09-08T02:22:12;10.13;;;6.80;;
69401;SDS011;56589;51.992;5.924;2023-09-08T02:24:38;10.35;;;6.80;;
69401;SDS011;56589;51.992;5.924;2023-09-08T02:27:04;7.47;;;6.20;;
69401;SDS011;56589;51.992;5.924;2023-09-08T02:29:30;11.32;;;6.63;;
69401;SDS011;56589;51.992;5.924;2023-09-08T02:31:57;11.32;;;7.13;;
69401;SDS011;56589;51.992;5.924;2023-09-08T02:34:26;9.07;;;6.15;;
69401;SDS011;56589;51.992;5.924;2023-09-08T02:36:51;9.95;;;6.53;;
69401;SDS011;56589;51.992;5.924;2023-09-08T02:39:17;11.98;;;6.72;;
69401;SDS011;56589;51.992;5.924;2023-09-08T02:41:43;8.32;;;6.70;;
69401;SDS011;56589;51.992;5.924;2023-09-08T02:44:10;7.95;;;6.35;;
69401;SDS011;56589;51.992;5.924;2023-09-08T02:46:39;11.10;;;7.18;;
69401;SDS011;56589;51.992;5.924;2023-09-08T02:49:06;12.18;;;6.70;;
69401;SDS011;56589;51.992;5.924;2023-09-08T02:51:36;11.35;;;6.63;;
69401;SDS011;56589;51.992;5.924;2023-09-08T02:54:02;9.93;;;7.18;;
69401;SDS011;56589;51.992;5.924;2023-09-08T02:56:28;9.88;;;7.10;;
69401;SDS011;56589;51.992;5.924;2023-09-08T02:58:54;9.68;;;6.63;;
69401;SDS011;56589;51.992;5.924;2023-09-08T03:01:20;11.50;;;6.38;;
69401;SDS011;56589;51.992;5.924;2023-09-08T03:03:46;9.88;;;6.38;;
69401;SDS011;56589;51.992;5.924;2023-09-08T03:06:13;9.15;;;6.97;;
69401;SDS011;56589;51.992;5.924;2023-09-08T03:08:43;9.60;;;6.60;;
69401;SDS011;56589;51.992;5.924;2023-09-08T03:11:09;8.70;;;6.63;;
69401;SDS011;56589;51.992;5.924;2023-09-08T03:13:38;11.00;;;7.25;;
69401;SDS011;56589;51.992;5.924;2023-09-08T03:16:04;10.10;;;6.55;;
69401;SDS011;56589;51.992;5.924;2023-09-08T03:18:32;9.70;;;7.07;;
69401;SDS011;56589;51.992;5.924;2023-09-08T03:20:59;8.20;;;6.75;;
69401;SDS011;56589;51.992;5.924;2023-09-08T03:23:26;10.68;;;7.25;;
69401;SDS011;56589;51.992;5.924;2023-09-08T03:25:54;8.98;;;6.82;;
69401;SDS011;56589;51.992;5.924;2023-09-08T03:28:20;12.27;;;7.70;;
69401;SDS011;56589;51.992;5.924;2023-09-08T03:30:46;10.50;;;7.57;;
69401;SDS011;56589;51.992;5.924;2023-09-08T03:33:13;10.15;;;6.93;;
69401;SDS011;56589;51.992;5.924;2023-09-08T03:35:39;10.80;;;6.75;;
69401;SDS011;56589;51.992;5.924;2023-09-08T03:38:06;9.70;;;7.20;;
69401;SDS011;56589;51.992;5.924;2023-09-08T03:40:34;11.68;;;7.72;;
69401;SDS011;56589;51.992;5.924;2023-09-08T03:43:03;11.55;;;6.82;;
69401;SDS011;56589;51.992;5.924;2023-09-08T03:45:29;8.90;;;6.45;;
69401;SDS011;56589;51.992;5.924;2023-09-08T03:47:55;9.13;;;7.00;;
69401;SDS011;56589;51.992;5.924;2023-09-08T03:50:21;11.27;;;7.43;;
69401;SDS011;56589;51.992;5.924;2023-09-08T03:52:47;7.95;;;6.90;;
69401;SDS011;56589;51.992;5.924;2023-09-08T03:55:14;12.48;;;6.75;;
69401;SDS011;56589;51.992;5.924;2023-09-08T03:57:42;13.25;;;7.75;;
69401;SDS011;56589;51.992;5.924;2023-09-08T04:00:12;10.85;;;7.93;;
69401;SDS011;56589;51.992;5.924;2023-09-08T04:02:41;10.73;;;8.02;;
69401;SDS011;56589;51.992;5.924;2023-09-08T04:05:08;13.13;;;7.57;;
69401;SDS011;56589;51.992;5.924;2023-09-08T04:07:37;11.95;;;8.00;;
69401;SDS011;56589;51.992;5.924;2023-09-08T04:10:04;9.85;;;7.55;;
69401;SDS011;56589;51.992;5.924;2023-09-08T04:12:33;10.35;;;7.10;;
69401;SDS011;56589;51.992;5.924;2023-09-08T04:14:59;10.60;;;7.53;;
69401;SDS011;56589;51.992;5.924;2023-09-08T04:17:29;12.05;;;8.10;;
69401;SDS011;56589;51.992;5.924;2023-09-08T04:19:55;16.98;;;8.65;;
69401;SDS011;56589;51.992;5.924;2023-09-08T04:22:22;10.70;;;8.18;;
69401;SDS011;56589;51.992;5.924;2023-09-08T04:24:50;11.65;;;8.40;;
69401;SDS011;56589;51.992;5.924;2023-09-08T04:27:17;14.70;;;8.23;;
69401;SDS011;56589;51.992;5.924;2023-09-08T04:29:44;11.57;;;8.48;;
69401;SDS011;56589;51.992;5.924;2023-09-08T04:32:11;16.05;;;9.00;;
69401;SDS011;56589;51.992;5.924;2023-09-08T04:34:42;15.05;;;8.20;;
69401;SDS011;56589;51.992;5.924;2023-09-08T04:37:09;11.90;;;8.20;;
69401;SDS011;56589;51.992;5.924;2023-09-08T04:39:38;13.45;;;8.85;;
69401;SDS011;56589;51.992;5.924;2023-09-08T04:42:04;12.93;;;8.52;;
69401;SDS011;56589;51.992;5.924;2023-09-08T04:44:32;14.43;;;9.05;;
69401;SDS011;56589;51.992;5.924;2023-09-08T04:46:58;15.25;;;9.15;;
69401;SDS011;56589;51.992;5.924;2023-09-08T04:49:26;13.48;;;8.10;;
69401;SDS011;56589;51.992;5.924;2023-09-08T04:51:55;13.77;;;9.30;;
69401;SDS011;56589;51.992;5.924;2023-09-08T04:54:21;11.45;;;8.30;;
69401;SDS011;56589;51.992;5.924;2023-09-08T04:56:48;12.02;;;9.25;;
69401;SDS011;56589;51.992;5.924;2023-09-08T04:59:14;15.18;;;8.93;;
69401;SDS011;56589;51.992;5.924;2023-09-08T05:01:40;14.02;;;9.13;;
69401;SDS011;56589;51.992;5.924;2023-09-08T05:04:07;12.85;;;9.75;;
69401;SDS011;56589;51.992;5.924;2023-09-08T05:06:35;11.75;;;8.30;;
69401;SDS011;56589;51.992;5.924;2023-09-08T05:09:04;12.50;;;8.63;;
69401;SDS011;56589;51.992;5.924;2023-09-08T05:11:30;13.18;;;8.90;;
69401;SDS011;56589;51.992;5.924;2023-09-08T05:13:56;12.15;;;9.35;;
69401;SDS011;56589;51.992;5.924;2023-09-08T05:16:22;11.55;;;8.55;;
69401;SDS011;56589;51.992;5.924;2023-09-08T05:18:49;14.45;;;9.48;;
69401;SDS011;56589;51.992;5.924;2023-09-08T05:21:15;21.75;;;10.23;;
69401;SDS011;56589;51.992;5.924;2023-09-08T05:23:42;17.05;;;9.93;;
69401;SDS011;56589;51.992;5.924;2023-09-08T05:26:12;11.98;;;9.38;;
69401;SDS011;56589;51.992;5.924;2023-09-08T05:28:40;14.32;;;9.02;;
69401;SDS011;56589;51.992;5.924;2023-09-08T05:31:07;12.60;;;9.40;;
69401;SDS011;56589;51.992;5.924;2023-09-08T05:33:35;14.70;;;9.93;;
69401;SDS011;56589;51.992;5.924;2023-09-08T05:36:01;11.02;;;9.07;;
69401;SDS011;56589;51.992;5.924;2023-09-08T05:38:27;15.00;;;9.07;;
69401;SDS011;56589;51.992;5.924;2023-09-08T05:40:53;10.82;;;9.40;;
69401;SDS011;56589;51.992;5.924;2023-09-08T05:43:22;13.70;;;9.32;;
69401;SDS011;56589;51.992;5.924;2023-09-08T05:45:50;12.15;;;9.45;;
69401;SDS011;56589;51.992;5.924;2023-09-08T05:48:16;14.27;;;9.60;;
69401;SDS011;56589;51.992;5.924;2023-09-08T05:50:42;12.70;;;9.10;;
69401;SDS011;56589;51.992;5.924;2023-09-08T05:53:09;16.60;;;8.35;;
69401;SDS011;56589;51.992;5.924;2023-09-08T05:55:37;12.63;;;8.75;;
69401;SDS011;56589;51.992;5.924;2023-09-08T05:58:03;16.55;;;9.43;;
69401;SDS011;56589;51.992;5.924;2023-09-08T06:00:32;13.50;;;8.52;;
69401;SDS011;56589;51.992;5.924;2023-09-08T06:02:58;12.95;;;9.13;;
69401;SDS011;56589;51.992;5.924;2023-09-08T06:05:24;9.95;;;8.63;;
69401;SDS011;56589;51.992;5.924;2023-09-08T06:07:50;11.27;;;8.35;;
69401;SDS011;56589;51.992;5.924;2023-09-08T06:10:17;17.85;;;8.15;;
69401;SDS011;56589;51.992;5.924;2023-09-08T06:12:44;13.75;;;7.97;;
69401;SDS011;56589;51.992;5.924;2023-09-08T06:15:11;11.98;;;7.82;;
69401;SDS011;56589;51.992;5.924;2023-09-08T06:17:42;11.45;;;8.23;;
69401;SDS011;56589;51.992;5.924;2023-09-08T06:20:13;9.05;;;7.63;;
69401;SDS011;56589;51.992;5.924;2023-09-08T06:22:40;11.02;;;7.88;;
69401;SDS011;56589;51.992;5.924;2023-09-08T06:25:10;10.45;;;7.88;;
69401;SDS011;56589;51.992;5.924;2023-09-08T06:27:37;10.90;;;8.00;;
69401;SDS011;56589;51.992;5.924;2023-09-08T06:30:04;8.73;;;7.40;;
69401;SDS011;56589;51.992;5.924;2023-09-08T06:32:34;9.65;;;7.60;;
69401;SDS011;56589;51.992;5.924;2023-09-08T06:35:03;8.85;;;7.75;;
69401;SDS011;56589;51.992;5.924;2023-09-08T06:37:33;9.35;;;7.78;;
69401;SDS011;56589;51.992;5.924;2023-09-08T06:40:01;11.38;;;8.40;;
69401;SDS011;56589;51.992;5.924;2023-09-08T06:42:28;8.98;;;7.65;;
69401;SDS011;56589;51.992;5.924;2023-09-08T06:44:54;9.38;;;7.90;;
69401;SDS011;56589;51.992;5.924;2023-09-08T06:47:20;10.13;;;8.00;;
69401;SDS011;56589;51.992;5.924;2023-09-08T06:49:47;9.90;;;8.52;;
69401;SDS011;56589;51.992;5.924;2023-09-08T06:52:16;13.13;;;8.77;;
69401;SDS011;56589;51.992;5.924;2023-09-08T06:54:44;16.30;;;8.00;;
69401;SDS011;56589;51.992;5.924;2023-09-08T06:57:11;12.52;;;8.60;;
69401;SDS011;56589;51.992;5.924;2023-09-08T06:59:39;16.13;;;8.38;;
69401;SDS011;56589;51.992;5.924;2023-09-08T07:02:07;10.43;;;8.10;;
69401;SDS011;56589;51.992;5.924;2023-09-08T07:04:34;11.20;;;8.40;;
69401;SDS011;56589;51.992;5.924;2023-09-08T07:07:00;11.35;;;9.50;;
69401;SDS011;56589;51.992;5.924;2023-09-08T07:09:28;9.88;;;8.65;;
69401;SDS011;56589;51.992;5.924;2023-09-08T07:11:54;14.20;;;9.23;;
69401;SDS011;56589;51.992;5.924;2023-09-08T07:14:21;12.02;;;8.73;;
69401;SDS011;56589;51.992;5.924;2023-09-08T07:16:49;11.73;;;8.98;;
69401;SDS011;56589;51.992;5.924;2023-09-08T07:19:15;12.82;;;9.73;;
69401;SDS011;56589;51.992;5.924;2023-09-08T07:21:41;11.52;;;7.90;;
69401;SDS011;56589;51.992;5.924;2023-09-08T07:24:08;14.63;;;9.02;;
69401;SDS011;56589;51.992;5.924;2023-09-08T07:26:39;17.48;;;8.88;;
69401;SDS011;56589;51.992;5.924;2023-09-08T07:29:05;11.63;;;9.07;;
69401;SDS011;56589;51.992;5.924;2023-09-08T07:31:31;10.93;;;8.63;;
69401;SDS011;56589;51.992;5.924;2023-09-08T07:33:57;14.30;;;9.38;;
69401;SDS011;56589;51.992;5.924;2023-09-08T07:36:23;11.00;;;8.88;;
69401;SDS011;56589;51.992;5.924;2023-09-08T07:38:52;12.85;;;8.70;;
69401;SDS011;56589;51.992;5.924;2023-09-08T07:41:18;12.88;;;8.32;;
69401;SDS011;56589;51.992;5.924;2023-09-08T07:43:47;13.02;;;8.38;;
69401;SDS011;56589;51.992;5.924;2023-09-08T07:46:14;12.80;;;8.98;;
69401;SDS011;56589;51.992;5.924;2023-09-08T07:48:40;11.90;;;8.88;;
69401;SDS011;56589;51.992;5.924;2023-09-08T07:51:07;11.85;;;8.30;;
69401;SDS011;56589;51.992;5.924;2023-09-08T07:53:35;17.30;;;9.35;;
69401;SDS011;56589;51.992;5.924;2023-09-08T07:56:01;16.48;;;8.32;;
69401;SDS011;56589;51.992;5.924;2023-09-08T07:58:28;14.32;;;9.25;;
69401;SDS011;56589;51.992;5.924;2023-09-08T08:00:57;14.05;;;9.88;;
69401;SDS011;56589;51.992;5.924;2023-09-08T08:03:24;12.75;;;8.77;;
69401;SDS011;56589;51.992;5.924;2023-09-08T08:05:50;14.38;;;8.38;;
69401;SDS011;56589;51.992;5.924;2023-09-08T08:08:16;17.52;;;9.30;;
69401;SDS011;56589;51.992;5.924;2023-09-08T08:10:42;14.35;;;8.73;;
69401;SDS011;56589;51.992;5.924;2023-09-08T08:13:09;13.55;;;9.05;;
69401;SDS011;56589;51.992;5.924;2023-09-08T08:15:38;16.80;;;8.85;;
69401;SDS011;56589;51.992;5.924;2023-09-08T08:18:11;15.18;;;9.02;;
69401;SDS011;56589;51.992;5.924;2023-09-08T08:20:39;13.07;;;8.88;;
69401;SDS011;56589;51.992;5.924;2023-09-08T08:23:05;11.05;;;9.40;;
69401;SDS011;56589;51.992;5.924;2023-09-08T08:25:35;11.23;;;8.95;;
69401;SDS011;56589;51.992;5.924;2023-09-08T08:28:01;13.07;;;8.43;;
69401;SDS011;56589;51.992;5.924;2023-09-08T08:30:28;12.50;;;9.18;;
69401;SDS011;56589;51.992;5.924;2023-09-08T08:32:54;14.68;;;9.13;;
69401;SDS011;56589;51.992;5.924;2023-09-08T08:35:23;13.07;;;9.18;;
69401;SDS011;56589;51.992;5.924;2023-09-08T08:37:50;15.43;;;10.35;;
69401;SDS011;56589;51.992;5.924;2023-09-08T08:40:17;14.55;;;8.38;;
69401;SDS011;56589;51.992;5.924;2023-09-08T08:42:44;12.13;;;9.18;;
69401;SDS011;56589;51.992;5.924;2023-09-08T08:45:12;14.88;;;8.60;;
69401;SDS011;56589;51.992;5.924;2023-09-08T08:47:42;11.68;;;8.68;;
69401;SDS011;56589;51.992;5.924;2023-09-08T08:50:10;12.75;;;8.82;;
69401;SDS011;56589;51.992;5.924;2023-09-08T08:52:41;13.32;;;8.27;;
69401;SDS011;56589;51.992;5.924;2023-09-08T08:55:09;10.40;;;8.55;;
69401;SDS011;56589;51.992;5.924;2023-09-08T08:57:38;15.60;;;8.95;;
69401;SDS011;56589;51.992;5.924;2023-09-08T09:00:06;23.13;;;11.27;;
69401;SDS011;56589;51.992;5.924;2023-09-08T09:02:36;12.82;;;8.77;;
69401;SDS011;56589;51.992;5.924;2023-09-08T09:05:07;12.43;;;8.60;;
69401;SDS011;56589;51.992;5.924;2023-09-08T09:07:38;12.20;;;8.13;;
69401;SDS011;56589;51.992;5.924;2023-09-08T09:10:09;11.05;;;9.10;;
69401;SDS011;56589;51.992;5.924;2023-09-08T09:12:39;12.57;;;9.10;;
69401;SDS011;56589;51.992;5.924;2023-09-08T09:15:05;12.38;;;8.77;;
69401;SDS011;56589;51.992;5.924;2023-09-08T09:17:34;12.18;;;8.63;;
69401;SDS011;56589;51.992;5.924;2023-09-08T09:20:14;8.65;;;7.40;;
69401;SDS011;56589;51.992;5.924;2023-09-08T09:22:47;12.23;;;8.15;;
69401;SDS011;56589;51.992;5.924;2023-09-08T09:25:21;11.60;;;7.95;;
69401;SDS011;56589;51.992;5.924;2023-09-08T09:27:50;9.82;;;8.25;;
69401;SDS011;56589;51.992;5.924;2023-09-08T09:30:18;11.85;;;7.32;;
69401;SDS011;56589;51.992;5.924;2023-09-08T09:32:44;12.25;;;8.43;;
69401;SDS011;56589;51.992;5.924;2023-09-08T09:35:11;12.40;;;8.05;;
69401;SDS011;56589;51.992;5.924;2023-09-08T09:37:40;15.48;;;7.95;;
69401;SDS011;56589;51.992;5.924;2023-09-08T09:40:10;10.40;;;7.82;;
69401;SDS011;56589;51.992;5.924;2023-09-08T09:42:39;12.77;;;8.00;;
69401;SDS011;56589;51.992;5.924;2023-09-08T09:45:05;9.77;;;8.30;;
69401;SDS011;56589;51.992;5.924;2023-09-08T09:47:34;11.25;;;7.70;;
69401;SDS011;56589;51.992;5.924;2023-09-08T09:50:02;17.92;;;11.13;;
69401;SDS011;56589;51.992;5.924;2023-09-08T09:52:30;13.85;;;9.13;;
69401;SDS011;56589;51.992;5.924;2023-09-08T09:54:56;11.13;;;8.77;;
69401;SDS011;56589;51.992;5.924;2023-09-08T09:57:27;14.57;;;9.18;;
69401;SDS011;56589;51.992;5.924;2023-09-08T09:59:56;12.82;;;8.35;;
69401;SDS011;56589;51.992;5.924;2023-09-08T10:02:24;11.23;;;8.88;;
69401;SDS011;56589;51.992;5.924;2023-09-08T10:04:53;11.77;;;9.00;;
69401;SDS011;56589;51.992;5.924;2023-09-08T10:07:20;11.27;;;8.05;;
69401;SDS011;56589;51.992;5.924;2023-09-08T10:09:48;13.88;;;9.70;;
69401;SDS011;56589;51.992;5.924;2023-09-08T10:12:15;11.45;;;8.48;;
69401;SDS011;56589;51.992;5.924;2023-09-08T10:14:46;13.85;;;9.38;;
69401;SDS011;56589;51.992;5.924;2023-09-08T10:17:22;9.20;;;6.78;;
69401;SDS011;56589;51.992;5.924;2023-09-08T10:19:55;8.70;;;5.95;;
69401;SDS011;56589;51.992;5.924;2023-09-08T10:22:29;8.73;;;6.93;;
69401;SDS011;56589;51.992;5.924;2023-09-08T10:24:58;9.00;;;6.60;;
69401;SDS011;56589;51.992;5.924;2023-09-08T10:27:31;10.85;;;8.07;;
69401;SDS011;56589;51.992;5.924;2023-09-08T10:30:01;9.32;;;6.85;;
69401;SDS011;56589;51.992;5.924;2023-09-08T10:32:31;9.98;;;6.97;;
69401;SDS011;56589;51.992;5.924;2023-09-08T10:34:59;13.75;;;7.18;;
69401;SDS011;56589;51.992;5.924;2023-09-08T10:37:27;12.35;;;7.45;;
69401;SDS011;56589;51.992;5.924;2023-09-08T10:39:55;8.73;;;5.97;;
69401;SDS011;56589;51.992;5.924;2023-09-08T10:42:41;11.13;;;6.35;;
69401;SDS011;56589;51.992;5.924;2023-09-08T10:45:17;8.45;;;5.93;;
69401;SDS011;56589;51.992;5.924;2023-09-08T10:47:55;10.65;;;7.03;;
69401;SDS011;56589;51.992;5.924;2023-09-08T10:50:32;8.88;;;6.65;;
69401;SDS011;56589;51.992;5.924;2023-09-08T10:53:04;10.85;;;5.97;;
69401;SDS011;56589;51.992;5.924;2023-09-08T10:55:40;78.88;;;38.90;;
69401;SDS011;56589;51.992;5.924;2023-09-08T10:58:09;48.63;;;27.55;;
69401;SDS011;56589;51.992;5.924;2023-09-08T11:00:45;8.27;;;6.05;;
69401;SDS011;56589;51.992;5.924;2023-09-08T11:03:13;6.28;;;4.72;;
69401;SDS011;56589;51.992;5.924;2023-09-08T11:05:52;7.55;;;4.95;;
69401;SDS011;56589;51.992;5.924;2023-09-08T11:08:18;7.30;;;4.72;;
69401;SDS011;56589;51.992;5.924;2023-09-08T11:10:45;7.03;;;5.07;;
69401;SDS011;56589;51.992;5.924;2023-09-08T11:13:12;9.30;;;5.35;;
69401;SDS011;56589;51.992;5.924;2023-09-08T11:15:40;8.27;;;4.68;;
69401;SDS011;56589;51.992;5.924;2023-09-08T11:18:10;8.77;;;4.60;;
69401;SDS011;56589;51.992;5.924;2023-09-08T11:20:39;11.18;;;5.03;;
69401;SDS011;56589;51.992;5.924;2023-09-08T11:23:05;10.13;;;5.28;;
69401;SDS011;56589;51.992;5.924;2023-09-08T11:25:32;10.70;;;4.78;;
69401;SDS011;56589;51.992;5.924;2023-09-08T11:27:58;6.82;;;5.15;;
69401;SDS011;56589;51.992;5.924;2023-09-08T11:30:25;7.55;;;5.55;;
69401;SDS011;56589;51.992;5.924;2023-09-08T11:32:53;10.35;;;5.55;;
69401;SDS011;56589;51.992;5.924;2023-09-08T11:35:23;7.07;;;5.28;;
69401;SDS011;56589;51.992;5.924;2023-09-08T11:37:53;5.95;;;4.18;;
69401;SDS011;56589;51.992;5.924;2023-09-08T11:40:24;8.60;;;5.10;;
69401;SDS011;56589;51.992;5.924;2023-09-08T11:42:50;9.18;;;4.50;;
69401;SDS011;56589;51.992;5.924;2023-09-08T11:45:19;5.20;;;4.68;;
69401;SDS011;56589;51.992;5.924;2023-09-08T11:47:45;7.55;;;5.18;;
69401;SDS011;56589;51.992;5.924;2023-09-08T11:50:12;6.68;;;4.82;;
69401;SDS011;56589;51.992;5.924;2023-09-08T11:52:46;8.05;;;4.40;;
69401;SDS011;56589;51.992;5.924;2023-09-08T11:55:15;8.55;;;4.18;;
69401;SDS011;56589;51.992;5.924;2023-09-08T11:57:46;6.18;;;4.53;;
69401;SDS011;56589;51.992;5.924;2023-09-08T12:00:16;5.97;;;3.58;;
69401;SDS011;56589;51.992;5.924;2023-09-08T12:02:45;4.55;;;3.35;;
69401;SDS011;56589;51.992;5.924;2023-09-08T12:05:12;6.85;;;3.42;;
69401;SDS011;56589;51.992;5.924;2023-09-08T12:07:38;4.78;;;3.20;;
69401;SDS011;56589;51.992;5.924;2023-09-08T12:10:12;4.07;;;3.53;;
69401;SDS011;56589;51.992;5.924;2023-09-08T12:12:43;8.65;;;3.50;;
69401;SDS011;56589;51.992;5.924;2023-09-08T12:17:58;7.57;;;4.30;;
69401;SDS011;56589;51.992;5.924;2023-09-08T12:20:25;8.00;;;3.83;;
69401;SDS011;56589;51.992;5.924;2023-09-08T12:22:52;9.88;;;4.50;;
69401;SDS011;56589;51.992;5.924;2023-09-08T12:25:21;5.47;;;4.15;;
69401;SDS011;56589;51.992;5.924;2023-09-08T12:27:49;7.68;;;3.83;;
69401;SDS011;56589;51.992;5.924;2023-09-08T12:30:17;8.25;;;3.83;;
69401;SDS011;56589;51.992;5.924;2023-09-08T12:32:45;12.63;;;4.43;;
69401;SDS011;56589;51.992;5.924;2023-09-08T12:35:13;7.72;;;4.40;;
69401;SDS011;56589;51.992;5.924;2023-09-08T12:37:46;9.65;;;4.30;;
69401;SDS011;56589;51.992;5.924;2023-09-08T12:40:13;5.90;;;4.53;;
69401;SDS011;56589;51.992;5.924;2023-09-08T12:42:44;8.50;;;4.28;;
69401;SDS011;56589;51.992;5.924;2023-09-08T12:45:11;5.25;;;4.65;;
69401;SDS011;56589;51.992;5.924;2023-09-08T12:47:41;9.73;;;4.93;;
69401;SDS011;56589;51.992;5.924;2023-09-08T12:50:09;6.25;;;4.30;;
69401;SDS011;56589;51.992;5.924;2023-09-08T12:52:38;11.90;;;4.70;;
69401;SDS011;56589;51.992;5.924;2023-09-08T12:55:04;7.00;;;4.63;;
69401;SDS011;56589;51.992;5.924;2023-09-08T12:57:31;5.50;;;4.50;;
69401;SDS011;56589;51.992;5.924;2023-09-08T13:00:00;4.88;;;3.90;;
69401;SDS011;56589;51.992;5.924;2023-09-08T13:02:27;7.80;;;4.40;;
69401;SDS011;56589;51.992;5.924;2023-09-08T13:04:53;8.75;;;4.63;;
69401;SDS011;56589;51.992;5.924;2023-09-08T13:07:20;9.50;;;3.80;;
69401;SDS011;56589;51.992;5.924;2023-09-08T13:09:46;5.63;;;4.13;;
69401;SDS011;56589;51.992;5.924;2023-09-08T13:12:12;6.57;;;4.22;;
69401;SDS011;56589;51.992;5.924;2023-09-08T13:14:40;6.28;;;3.85;;
69401;SDS011;56589;51.992;5.924;2023-09-08T13:17:10;8.68;;;4.72;;
69401;SDS011;56589;51.992;5.924;2023-09-08T13:22:05;8.95;;;4.78;;
69401;SDS011;56589;51.992;5.924;2023-09-08T13:24:32;7.25;;;4.15;;
69401;SDS011;56589;51.992;5.924;2023-09-08T13:27:02;5.55;;;4.47;;
69401;SDS011;56589;51.992;5.924;2023-09-08T13:29:30;7.57;;;4.13;;
69401;SDS011;56589;51.992;5.924;2023-09-08T13:31:56;5.65;;;4.50;;
69401;SDS011;56589;51.992;5.924;2023-09-08T13:34:24;5.13;;;3.92;;
69401;SDS011;56589;51.992;5.924;2023-09-08T13:36:50;7.13;;;3.55;;
69401;SDS011;56589;51.992;5.924;2023-09-08T13:39:17;6.35;;;3.63;;
69401;SDS011;56589;51.992;5.924;2023-09-08T13:41:47;6.03;;;3.85;;
69401;SDS011;56589;51.992;5.924;2023-09-08T13:44:16;3.88;;;3.47;;
69401;SDS011;56589;51.992;5.924;2023-09-08T13:46:43;6.88;;;3.67;;
69401;SDS011;56589;51.992;5.924;2023-09-08T13:49:10;6.32;;;3.70;;
69401;SDS011;56589;51.992;5.924;2023-09-08T13:51:40;6.20;;;3.78;;
69401;SDS011;56589;51.992;5.924;2023-09-08T13:54:08;5.38;;;3.47;;
69401;SDS011;56589;51.992;5.924;2023-09-08T13:56:37;5.57;;;3.63;;
69401;SDS011;56589;51.992;5.924;2023-09-08T13:59:04;7.28;;;3.58;;
69401;SDS011;56589;51.992;5.924;2023-09-08T14:01:33;3.97;;;3.55;;
69401;SDS011;56589;51.992;5.924;2023-09-08T14:04:03;5.47;;;3.53;;
69401;SDS011;56589;51.992;5.924;2023-09-08T14:06:30;4.85;;;3.53;;
69401;SDS011;56589;51.992;5.924;2023-09-08T14:08:58;6.95;;;3.70;;
69401;SDS011;56589;51.992;5.924;2023-09-08T14:11:25;4.70;;;3.80;;
69401;SDS011;56589;51.992;5.924;2023-09-08T14:13:54;5.50;;;4.10;;
69401;SDS011;56589;51.992;5.924;2023-09-08T14:16:21;4.60;;;3.50;;
69401;SDS011;56589;51.992;5.924;2023-09-08T14:18:48;8.52;;;3.70;;
69401;SDS011;56589;51.992;5.924;2023-09-08T14:21:14;4.05;;;3.42;;
69401;SDS011;56589;51.992;5.924;2023-09-08T14:23:43;6.20;;;3.17;;
69401;SDS011;56589;51.992;5.924;2023-09-08T14:26:12;8.35;;;3.95;;
69401;SDS011;56589;51.992;5.924;2023-09-08T14:28:40;6.40;;;4.15;;
69401;SDS011;56589;51.992;5.924;2023-09-08T14:31:07;5.72;;;4.20;;
69401;SDS011;56589;51.992;5.924;2023-09-08T14:33:36;7.25;;;3.80;;
69401;SDS011;56589;51.992;5.924;2023-09-08T14:36:04;5.95;;;3.72;;
69401;SDS011;56589;51.992;5.924;2023-09-08T14:38:30;6.20;;;3.90;;
69401;SDS011;56589;51.992;5.924;2023-09-08T14:40:57;4.85;;;3.85;;
69401;SDS011;56589;51.992;5.924;2023-09-08T14:43:28;7.53;;;4.35;;
69401;SDS011;56589;51.992;5.924;2023-09-08T14:45:55;5.20;;;3.78;;
69401;SDS011;56589;51.992;5.924;2023-09-08T14:48:21;7.43;;;3.90;;
69401;SDS011;56589;51.992;5.924;2023-09-08T14:50:48;9.55;;;4.40;;
69401;SDS011;56589;51.992;5.924;2023-09-08T14:53:15;6.65;;;4.05;;